sensor_id;sensor_type;location;lat;lon;timestamp;P1;durP1;ratioP1;P2;durP2;ratioP2
71734;SDS011;59577;52.122;5.406;2022-08-19T00:01:25;4.50;;;1.93;;
71734;SDS011;59577;52.122;5.406;2022-08-19T00:03:59;1.77;;;1.40;;
71734;SDS011;59577;52.122;5.406;2022-08-19T00:06:33;3.22;;;1.58;;
71734;SDS011;59577;52.122;5.406;2022-08-19T00:09:02;1.67;;;1.58;;
71734;SDS011;59577;52.122;5.406;2022-08-19T00:11:31;4.60;;;1.73;;
71734;SDS011;59577;52.122;5.406;2022-08-19T00:13:57;4.40;;;1.73;;
71734;SDS011;59577;52.122;5.406;2022-08-19T00:16:25;3.42;;;1.20;;
71734;SDS011;59577;52.122;5.406;2022-08-19T00:18:53;2.05;;;1.70;;
71734;SDS011;59577;52.122;5.406;2022-08-19T00:21:22;1.92;;;1.73;;
71734;SDS011;59577;52.122;5.406;2022-08-19T00:23:49;3.60;;;1.55;;
71734;SDS011;59577;52.122;5.406;2022-08-19T00:26:16;1.77;;;1.60;;
71734;SDS011;59577;52.122;5.406;2022-08-19T00:28:42;1.95;;;1.75;;
71734;SDS011;59577;52.122;5.406;2022-08-19T00:31:09;1.48;;;0.90;;
71734;SDS011;59577;52.122;5.406;2022-08-19T00:33:36;6.28;;;1.58;;
71734;SDS011;59577;52.122;5.406;2022-08-19T00:36:04;2.03;;;1.55;;
71734;SDS011;59577;52.122;5.406;2022-08-19T00:38:33;2.87;;;1.40;;
71734;SDS011;59577;52.122;5.406;2022-08-19T00:41:04;2.60;;;1.40;;
71734;SDS011;59577;52.122;5.406;2022-08-19T00:43:31;2.17;;;1.80;;
71734;SDS011;59577;52.122;5.406;2022-08-19T00:45:58;4.85;;;1.55;;
71734;SDS011;59577;52.122;5.406;2022-08-19T00:48:25;4.10;;;1.58;;
71734;SDS011;59577;52.122;5.406;2022-08-19T00:50:52;3.37;;;1.57;;
71734;SDS011;59577;52.122;5.406;2022-08-19T00:53:21;1.90;;;1.10;;
71734;SDS011;59577;52.122;5.406;2022-08-19T00:55:51;3.35;;;1.33;;
71734;SDS011;59577;52.122;5.406;2022-08-19T00:58:21;2.40;;;1.25;;
71734;SDS011;59577;52.122;5.406;2022-08-19T01:00:50;2.10;;;1.58;;
71734;SDS011;59577;52.122;5.406;2022-08-19T01:03:18;1.20;;;1.10;;
71734;SDS011;59577;52.122;5.406;2022-08-19T01:05:46;2.78;;;1.20;;
71734;SDS011;59577;52.122;5.406;2022-08-19T01:08:15;1.90;;;1.38;;
71734;SDS011;59577;52.122;5.406;2022-08-19T01:10:44;2.20;;;1.88;;
71734;SDS011;59577;52.122;5.406;2022-08-19T01:13:15;3.53;;;1.50;;
71734;SDS011;59577;52.122;5.406;2022-08-19T01:15:48;1.53;;;1.43;;
71734;SDS011;59577;52.122;5.406;2022-08-19T01:18:19;1.50;;;1.40;;
71734;SDS011;59577;52.122;5.406;2022-08-19T01:20:47;2.10;;;1.65;;
71734;SDS011;59577;52.122;5.406;2022-08-19T01:23:14;4.25;;;1.48;;
71734;SDS011;59577;52.122;5.406;2022-08-19T01:25:43;1.63;;;1.40;;
71734;SDS011;59577;52.122;5.406;2022-08-19T01:30:58;1.63;;;1.42;;
71734;SDS011;59577;52.122;5.406;2022-08-19T01:33:25;3.75;;;1.80;;
71734;SDS011;59577;52.122;5.406;2022-08-19T01:35:51;2.80;;;1.75;;
71734;SDS011;59577;52.122;5.406;2022-08-19T01:38:20;2.50;;;1.77;;
71734;SDS011;59577;52.122;5.406;2022-08-19T01:40:50;2.30;;;2.00;;
71734;SDS011;59577;52.122;5.406;2022-08-19T01:43:17;1.92;;;1.77;;
71734;SDS011;59577;52.122;5.406;2022-08-19T01:45:45;2.38;;;1.88;;
71734;SDS011;59577;52.122;5.406;2022-08-19T01:48:13;2.35;;;1.85;;
71734;SDS011;59577;52.122;5.406;2022-08-19T01:50:39;3.17;;;1.50;;
71734;SDS011;59577;52.122;5.406;2022-08-19T01:53:07;2.30;;;1.80;;
71734;SDS011;59577;52.122;5.406;2022-08-19T01:55:38;1.90;;;1.73;;
71734;SDS011;59577;52.122;5.406;2022-08-19T01:58:08;4.05;;;2.03;;
71734;SDS011;59577;52.122;5.406;2022-08-19T02:00:38;3.60;;;2.05;;
71734;SDS011;59577;52.122;5.406;2022-08-19T02:03:05;7.15;;;2.65;;
71734;SDS011;59577;52.122;5.406;2022-08-19T02:05:32;2.73;;;2.00;;
71734;SDS011;59577;52.122;5.406;2022-08-19T02:07:59;7.72;;;2.22;;
71734;SDS011;59577;52.122;5.406;2022-08-19T02:10:25;2.92;;;2.05;;
71734;SDS011;59577;52.122;5.406;2022-08-19T02:12:52;3.25;;;2.35;;
71734;SDS011;59577;52.122;5.406;2022-08-19T02:15:19;3.55;;;1.95;;
71734;SDS011;59577;52.122;5.406;2022-08-19T02:17:47;3.20;;;2.00;;
71734;SDS011;59577;52.122;5.406;2022-08-19T02:20:14;5.13;;;1.90;;
71734;SDS011;59577;52.122;5.406;2022-08-19T02:22:41;2.78;;;1.95;;
71734;SDS011;59577;52.122;5.406;2022-08-19T02:25:12;2.20;;;2.00;;
71734;SDS011;59577;52.122;5.406;2022-08-19T02:27:39;2.90;;;1.77;;
71734;SDS011;59577;52.122;5.406;2022-08-19T02:30:08;4.73;;;1.90;;
71734;SDS011;59577;52.122;5.406;2022-08-19T02:32:39;3.63;;;1.75;;
71734;SDS011;59577;52.122;5.406;2022-08-19T02:35:10;4.13;;;2.15;;
71734;SDS011;59577;52.122;5.406;2022-08-19T02:37:38;2.35;;;2.00;;
71734;SDS011;59577;52.122;5.406;2022-08-19T02:40:23;5.20;;;2.55;;
71734;SDS011;59577;52.122;5.406;2022-08-19T02:42:50;7.57;;;3.90;;
71734;SDS011;59577;52.122;5.406;2022-08-19T02:45:16;7.65;;;4.80;;
71734;SDS011;59577;52.122;5.406;2022-08-19T02:47:43;9.05;;;3.95;;
71734;SDS011;59577;52.122;5.406;2022-08-19T02:50:10;6.55;;;3.97;;
71734;SDS011;59577;52.122;5.406;2022-08-19T02:52:36;7.63;;;4.82;;
71734;SDS011;59577;52.122;5.406;2022-08-19T02:55:03;6.00;;;4.07;;
71734;SDS011;59577;52.122;5.406;2022-08-19T02:57:31;6.22;;;4.38;;
71734;SDS011;59577;52.122;5.406;2022-08-19T02:59:58;7.05;;;5.82;;
71734;SDS011;59577;52.122;5.406;2022-08-19T03:02:25;8.80;;;5.93;;
71734;SDS011;59577;52.122;5.406;2022-08-19T03:04:51;7.38;;;5.13;;
71734;SDS011;59577;52.122;5.406;2022-08-19T03:07:18;11.97;;;6.47;;
71734;SDS011;59577;52.122;5.406;2022-08-19T03:09:44;7.57;;;4.90;;
71734;SDS011;59577;52.122;5.406;2022-08-19T03:12:12;8.82;;;5.97;;
71734;SDS011;59577;52.122;5.406;2022-08-19T03:14:39;6.57;;;5.00;;
71734;SDS011;59577;52.122;5.406;2022-08-19T03:17:05;10.60;;;5.72;;
71734;SDS011;59577;52.122;5.406;2022-08-19T03:19:32;8.63;;;4.77;;
71734;SDS011;59577;52.122;5.406;2022-08-19T03:21:59;8.02;;;5.03;;
71734;SDS011;59577;52.122;5.406;2022-08-19T03:24:25;7.25;;;4.30;;
71734;SDS011;59577;52.122;5.406;2022-08-19T03:26:53;5.35;;;4.28;;
71734;SDS011;59577;52.122;5.406;2022-08-19T03:29:25;5.88;;;3.95;;
71734;SDS011;59577;52.122;5.406;2022-08-19T03:32:00;7.23;;;4.30;;
71734;SDS011;59577;52.122;5.406;2022-08-19T03:34:30;4.28;;;3.67;;
71734;SDS011;59577;52.122;5.406;2022-08-19T03:36:59;5.80;;;4.35;;
71734;SDS011;59577;52.122;5.406;2022-08-19T03:39:30;6.22;;;4.15;;
71734;SDS011;59577;52.122;5.406;2022-08-19T03:41:57;8.57;;;4.75;;
71734;SDS011;59577;52.122;5.406;2022-08-19T03:44:47;4.93;;;4.43;;
71734;SDS011;59577;52.122;5.406;2022-08-19T03:47:13;7.13;;;4.10;;
71734;SDS011;59577;52.122;5.406;2022-08-19T03:49:42;4.63;;;3.83;;
71734;SDS011;59577;52.122;5.406;2022-08-19T03:52:09;5.82;;;4.10;;
71734;SDS011;59577;52.122;5.406;2022-08-19T03:54:36;6.93;;;3.50;;
71734;SDS011;59577;52.122;5.406;2022-08-19T03:57:04;4.70;;;3.70;;
71734;SDS011;59577;52.122;5.406;2022-08-19T03:59:32;5.47;;;3.83;;
71734;SDS011;59577;52.122;5.406;2022-08-19T04:02:03;5.53;;;4.05;;
71734;SDS011;59577;52.122;5.406;2022-08-19T04:04:35;5.53;;;4.10;;
71734;SDS011;59577;52.122;5.406;2022-08-19T04:07:03;5.13;;;4.32;;
71734;SDS011;59577;52.122;5.406;2022-08-19T04:09:30;4.47;;;3.77;;
71734;SDS011;59577;52.122;5.406;2022-08-19T04:11:57;5.50;;;3.30;;
71734;SDS011;59577;52.122;5.406;2022-08-19T04:14:26;3.95;;;3.38;;
71734;SDS011;59577;52.122;5.406;2022-08-19T04:16:56;5.40;;;3.58;;
71734;SDS011;59577;52.122;5.406;2022-08-19T04:19:29;5.43;;;4.18;;
71734;SDS011;59577;52.122;5.406;2022-08-19T04:21:56;5.60;;;4.07;;
71734;SDS011;59577;52.122;5.406;2022-08-19T04:24:23;6.13;;;4.10;;
71734;SDS011;59577;52.122;5.406;2022-08-19T04:26:50;4.18;;;3.53;;
71734;SDS011;59577;52.122;5.406;2022-08-19T04:29:18;6.32;;;4.30;;
71734;SDS011;59577;52.122;5.406;2022-08-19T04:31:48;4.15;;;3.38;;
71734;SDS011;59577;52.122;5.406;2022-08-19T04:34:16;4.63;;;3.23;;
71734;SDS011;59577;52.122;5.406;2022-08-19T04:36:44;7.00;;;3.65;;
71734;SDS011;59577;52.122;5.406;2022-08-19T04:39:13;5.13;;;3.78;;
71734;SDS011;59577;52.122;5.406;2022-08-19T04:41:42;6.55;;;4.25;;
71734;SDS011;59577;52.122;5.406;2022-08-19T04:44:27;8.23;;;4.45;;
71734;SDS011;59577;52.122;5.406;2022-08-19T04:46:58;11.13;;;3.80;;
71734;SDS011;59577;52.122;5.406;2022-08-19T04:49:26;8.32;;;4.03;;
71734;SDS011;59577;52.122;5.406;2022-08-19T04:51:53;7.00;;;3.90;;
71734;SDS011;59577;52.122;5.406;2022-08-19T04:54:28;20.48;;;4.82;;
71734;SDS011;59577;52.122;5.406;2022-08-19T04:57:04;11.55;;;4.47;;
71734;SDS011;59577;52.122;5.406;2022-08-19T04:59:33;8.90;;;3.57;;
71734;SDS011;59577;52.122;5.406;2022-08-19T05:02:00;6.00;;;3.83;;
71734;SDS011;59577;52.122;5.406;2022-08-19T05:04:27;5.53;;;4.03;;
71734;SDS011;59577;52.122;5.406;2022-08-19T05:06:59;4.93;;;3.55;;
71734;SDS011;59577;52.122;5.406;2022-08-19T05:09:28;6.68;;;4.32;;
71734;SDS011;59577;52.122;5.406;2022-08-19T05:12:15;5.00;;;3.77;;
71734;SDS011;59577;52.122;5.406;2022-08-19T05:14:42;4.13;;;3.05;;
71734;SDS011;59577;52.122;5.406;2022-08-19T05:17:12;5.45;;;3.50;;
71734;SDS011;59577;52.122;5.406;2022-08-19T05:19:59;6.55;;;3.60;;
71734;SDS011;59577;52.122;5.406;2022-08-19T05:22:46;6.70;;;4.32;;
71734;SDS011;59577;52.122;5.406;2022-08-19T05:25:14;5.00;;;4.13;;
71734;SDS011;59577;52.122;5.406;2022-08-19T05:27:45;4.15;;;3.72;;
71734;SDS011;59577;52.122;5.406;2022-08-19T05:30:13;4.03;;;3.45;;
71734;SDS011;59577;52.122;5.406;2022-08-19T05:32:41;4.25;;;3.67;;
71734;SDS011;59577;52.122;5.406;2022-08-19T05:35:08;4.15;;;3.47;;
71734;SDS011;59577;52.122;5.406;2022-08-19T05:37:35;6.90;;;4.43;;
71734;SDS011;59577;52.122;5.406;2022-08-19T05:40:03;5.53;;;4.30;;
71734;SDS011;59577;52.122;5.406;2022-08-19T05:42:32;5.25;;;4.10;;
71734;SDS011;59577;52.122;5.406;2022-08-19T05:45:02;5.90;;;4.05;;
71734;SDS011;59577;52.122;5.406;2022-08-19T05:47:32;5.32;;;4.75;;
71734;SDS011;59577;52.122;5.406;2022-08-19T05:49:59;6.77;;;5.20;;
71734;SDS011;59577;52.122;5.406;2022-08-19T05:52:30;5.20;;;4.22;;
71734;SDS011;59577;52.122;5.406;2022-08-19T05:54:56;6.63;;;5.32;;
71734;SDS011;59577;52.122;5.406;2022-08-19T05:57:23;6.63;;;5.60;;
71734;SDS011;59577;52.122;5.406;2022-08-19T05:59:50;8.50;;;5.45;;
71734;SDS011;59577;52.122;5.406;2022-08-19T06:02:23;8.97;;;6.37;;
71734;SDS011;59577;52.122;5.406;2022-08-19T06:04:51;14.27;;;7.88;;
71734;SDS011;59577;52.122;5.406;2022-08-19T06:07:17;7.57;;;5.93;;
71734;SDS011;59577;52.122;5.406;2022-08-19T06:09:44;10.45;;;6.47;;
71734;SDS011;59577;52.122;5.406;2022-08-19T06:12:24;11.88;;;8.15;;
71734;SDS011;59577;52.122;5.406;2022-08-19T06:14:54;12.97;;;8.20;;
71734;SDS011;59577;52.122;5.406;2022-08-19T06:17:27;14.35;;;8.35;;
71734;SDS011;59577;52.122;5.406;2022-08-19T06:19:56;12.35;;;8.35;;
71734;SDS011;59577;52.122;5.406;2022-08-19T06:22:23;13.00;;;9.05;;
71734;SDS011;59577;52.122;5.406;2022-08-19T06:24:49;17.55;;;11.20;;
71734;SDS011;59577;52.122;5.406;2022-08-19T06:27:19;18.00;;;11.10;;
71734;SDS011;59577;52.122;5.406;2022-08-19T06:29:46;15.25;;;10.70;;
71734;SDS011;59577;52.122;5.406;2022-08-19T06:32:14;24.67;;;13.02;;
71734;SDS011;59577;52.122;5.406;2022-08-19T06:34:45;21.17;;;14.05;;
71734;SDS011;59577;52.122;5.406;2022-08-19T06:37:11;24.08;;;14.68;;
71734;SDS011;59577;52.122;5.406;2022-08-19T06:39:39;24.90;;;14.83;;
71734;SDS011;59577;52.122;5.406;2022-08-19T06:42:10;29.63;;;16.80;;
71734;SDS011;59577;52.122;5.406;2022-08-19T06:44:43;28.95;;;17.15;;
71734;SDS011;59577;52.122;5.406;2022-08-19T06:47:16;30.15;;;17.05;;
71734;SDS011;59577;52.122;5.406;2022-08-19T06:49:57;28.33;;;18.00;;
71734;SDS011;59577;52.122;5.406;2022-08-19T06:52:32;32.50;;;18.73;;
71734;SDS011;59577;52.122;5.406;2022-08-19T06:55:03;29.90;;;17.38;;
71734;SDS011;59577;52.122;5.406;2022-08-19T06:57:32;30.38;;;15.95;;
71734;SDS011;59577;52.122;5.406;2022-08-19T06:59:59;34.08;;;17.52;;
71734;SDS011;59577;52.122;5.406;2022-08-19T07:02:26;37.70;;;18.95;;
71734;SDS011;59577;52.122;5.406;2022-08-19T07:04:52;42.53;;;19.37;;
71734;SDS011;59577;52.122;5.406;2022-08-19T07:07:20;45.38;;;20.52;;
71734;SDS011;59577;52.122;5.406;2022-08-19T07:09:49;46.40;;;20.42;;
71734;SDS011;59577;52.122;5.406;2022-08-19T07:12:25;38.17;;;19.30;;
71734;SDS011;59577;52.122;5.406;2022-08-19T07:14:52;41.55;;;19.75;;
71734;SDS011;59577;52.122;5.406;2022-08-19T07:17:19;46.97;;;20.50;;
71734;SDS011;59577;52.122;5.406;2022-08-19T07:19:46;51.38;;;23.40;;
71734;SDS011;59577;52.122;5.406;2022-08-19T07:22:13;44.50;;;22.10;;
71734;SDS011;59577;52.122;5.406;2022-08-19T07:24:42;46.70;;;22.45;;
71734;SDS011;59577;52.122;5.406;2022-08-19T07:27:16;45.42;;;21.90;;
71734;SDS011;59577;52.122;5.406;2022-08-19T07:29:49;40.33;;;21.40;;
71734;SDS011;59577;52.122;5.406;2022-08-19T07:32:22;43.13;;;22.17;;
71734;SDS011;59577;52.122;5.406;2022-08-19T07:34:53;39.00;;;20.75;;
71734;SDS011;59577;52.122;5.406;2022-08-19T07:37:21;41.20;;;21.00;;
71734;SDS011;59577;52.122;5.406;2022-08-19T07:39:48;44.55;;;23.23;;
71734;SDS011;59577;52.122;5.406;2022-08-19T07:42:14;41.60;;;23.00;;
71734;SDS011;59577;52.122;5.406;2022-08-19T07:44:41;45.03;;;23.45;;
71734;SDS011;59577;52.122;5.406;2022-08-19T07:47:16;44.63;;;23.33;;
71734;SDS011;59577;52.122;5.406;2022-08-19T07:50:04;50.75;;;24.52;;
71734;SDS011;59577;52.122;5.406;2022-08-19T07:52:34;46.70;;;22.90;;
71734;SDS011;59577;52.122;5.406;2022-08-19T07:55:02;41.10;;;22.80;;
71734;SDS011;59577;52.122;5.406;2022-08-19T07:57:30;39.63;;;22.50;;
71734;SDS011;59577;52.122;5.406;2022-08-19T07:59:57;40.22;;;23.10;;
71734;SDS011;59577;52.122;5.406;2022-08-19T08:02:24;40.42;;;22.30;;
71734;SDS011;59577;52.122;5.406;2022-08-19T08:04:51;32.38;;;19.85;;
71734;SDS011;59577;52.122;5.406;2022-08-19T08:07:35;31.53;;;18.20;;
71734;SDS011;59577;52.122;5.406;2022-08-19T08:10:20;32.85;;;17.77;;
71734;SDS011;59577;52.122;5.406;2022-08-19T08:12:50;25.30;;;16.85;;
71734;SDS011;59577;52.122;5.406;2022-08-19T08:15:35;27.90;;;16.95;;
71734;SDS011;59577;52.122;5.406;2022-08-19T08:18:09;26.23;;;15.93;;
71734;SDS011;59577;52.122;5.406;2022-08-19T08:20:36;26.30;;;15.53;;
71734;SDS011;59577;52.122;5.406;2022-08-19T08:23:03;25.50;;;15.40;;
71734;SDS011;59577;52.122;5.406;2022-08-19T08:25:48;27.88;;;16.30;;
71734;SDS011;59577;52.122;5.406;2022-08-19T08:28:16;28.80;;;17.00;;
71734;SDS011;59577;52.122;5.406;2022-08-19T08:30:44;27.30;;;15.80;;
71734;SDS011;59577;52.122;5.406;2022-08-19T08:33:20;30.63;;;16.07;;
71734;SDS011;59577;52.122;5.406;2022-08-19T08:36:06;26.90;;;16.75;;
71734;SDS011;59577;52.122;5.406;2022-08-19T08:38:33;24.30;;;15.98;;
71734;SDS011;59577;52.122;5.406;2022-08-19T08:43:54;22.88;;;14.32;;
71734;SDS011;59577;52.122;5.406;2022-08-19T08:46:43;23.80;;;14.30;;
71734;SDS011;59577;52.122;5.406;2022-08-19T08:49:19;21.05;;;12.90;;
71734;SDS011;59577;52.122;5.406;2022-08-19T08:52:05;23.98;;;14.55;;
71734;SDS011;59577;52.122;5.406;2022-08-19T08:54:47;20.55;;;13.27;;
71734;SDS011;59577;52.122;5.406;2022-08-19T08:57:38;20.17;;;13.30;;
71734;SDS011;59577;52.122;5.406;2022-08-19T09:00:17;18.10;;;12.77;;
71734;SDS011;59577;52.122;5.406;2022-08-19T09:02:47;19.40;;;12.68;;
71734;SDS011;59577;52.122;5.406;2022-08-19T09:05:17;24.92;;;13.45;;
71734;SDS011;59577;52.122;5.406;2022-08-19T09:07:59;17.50;;;12.57;;
71734;SDS011;59577;52.122;5.406;2022-08-19T09:16:08;16.85;;;12.77;;
71734;SDS011;59577;52.122;5.406;2022-08-19T09:18:40;16.20;;;11.60;;
71734;SDS011;59577;52.122;5.406;2022-08-19T09:21:14;19.80;;;12.68;;
71734;SDS011;59577;52.122;5.406;2022-08-19T09:23:42;17.77;;;12.77;;
71734;SDS011;59577;52.122;5.406;2022-08-19T09:26:10;16.23;;;11.67;;
71734;SDS011;59577;52.122;5.406;2022-08-19T09:28:42;17.63;;;12.25;;
71734;SDS011;59577;52.122;5.406;2022-08-19T09:31:24;17.77;;;12.35;;
71734;SDS011;59577;52.122;5.406;2022-08-19T09:33:53;15.70;;;11.75;;
71734;SDS011;59577;52.122;5.406;2022-08-19T09:36:24;14.63;;;11.32;;
71734;SDS011;59577;52.122;5.406;2022-08-19T09:39:00;15.10;;;12.23;;
71734;SDS011;59577;52.122;5.406;2022-08-19T09:41:27;16.30;;;10.68;;
71734;SDS011;59577;52.122;5.406;2022-08-19T09:43:55;12.48;;;10.60;;
71734;SDS011;59577;52.122;5.406;2022-08-19T09:46:25;17.42;;;11.27;;
71734;SDS011;59577;52.122;5.406;2022-08-19T09:48:53;15.48;;;10.25;;
71734;SDS011;59577;52.122;5.406;2022-08-19T09:51:22;17.17;;;10.60;;
71734;SDS011;59577;52.122;5.406;2022-08-19T09:53:50;11.00;;;9.57;;
71734;SDS011;59577;52.122;5.406;2022-08-19T09:56:21;12.13;;;8.88;;
71734;SDS011;59577;52.122;5.406;2022-08-19T09:58:49;14.90;;;8.90;;
71734;SDS011;59577;52.122;5.406;2022-08-19T10:01:21;9.68;;;8.13;;
71734;SDS011;59577;52.122;5.406;2022-08-19T10:03:50;11.13;;;7.60;;
71734;SDS011;59577;52.122;5.406;2022-08-19T10:06:20;10.85;;;8.95;;
71734;SDS011;59577;52.122;5.406;2022-08-19T10:09:08;12.93;;;9.90;;
71734;SDS011;59577;52.122;5.406;2022-08-19T10:11:41;10.75;;;9.10;;
71734;SDS011;59577;52.122;5.406;2022-08-19T10:14:19;16.40;;;8.98;;
71734;SDS011;59577;52.122;5.406;2022-08-19T10:16:48;9.63;;;8.47;;
71734;SDS011;59577;52.122;5.406;2022-08-19T10:19:18;11.70;;;9.70;;
71734;SDS011;59577;52.122;5.406;2022-08-19T10:21:51;13.45;;;9.18;;
71734;SDS011;59577;52.122;5.406;2022-08-19T10:24:18;14.48;;;9.00;;
71734;SDS011;59577;52.122;5.406;2022-08-19T10:26:46;15.25;;;10.23;;
71734;SDS011;59577;52.122;5.406;2022-08-19T10:29:24;13.53;;;10.47;;
71734;SDS011;59577;52.122;5.406;2022-08-19T10:31:59;12.20;;;10.70;;
71734;SDS011;59577;52.122;5.406;2022-08-19T10:34:28;16.75;;;11.20;;
71734;SDS011;59577;52.122;5.406;2022-08-19T10:36:56;17.20;;;10.63;;
71734;SDS011;59577;52.122;5.406;2022-08-19T10:39:26;11.95;;;10.60;;
71734;SDS011;59577;52.122;5.406;2022-08-19T10:41:56;14.17;;;10.90;;
71734;SDS011;59577;52.122;5.406;2022-08-19T10:44:22;13.10;;;10.40;;
71734;SDS011;59577;52.122;5.406;2022-08-19T10:46:57;12.57;;;10.13;;
71734;SDS011;59577;52.122;5.406;2022-08-19T10:49:25;15.27;;;9.98;;
71734;SDS011;59577;52.122;5.406;2022-08-19T10:51:55;16.73;;;11.90;;
71734;SDS011;59577;52.122;5.406;2022-08-19T10:54:47;12.47;;;11.10;;
71734;SDS011;59577;52.122;5.406;2022-08-19T10:57:33;14.63;;;12.95;;
71734;SDS011;59577;52.122;5.406;2022-08-19T11:00:21;15.05;;;12.57;;
71734;SDS011;59577;52.122;5.406;2022-08-19T11:02:49;14.75;;;12.00;;
71734;SDS011;59577;52.122;5.406;2022-08-19T11:05:16;18.13;;;12.80;;
71734;SDS011;59577;52.122;5.406;2022-08-19T11:07:44;20.17;;;14.77;;
71734;SDS011;59577;52.122;5.406;2022-08-19T11:10:12;18.83;;;14.15;;
71734;SDS011;59577;52.122;5.406;2022-08-19T11:12:46;15.40;;;13.88;;
71734;SDS011;59577;52.122;5.406;2022-08-19T11:15:13;16.40;;;14.45;;
71734;SDS011;59577;52.122;5.406;2022-08-19T11:17:40;17.70;;;13.25;;
71734;SDS011;59577;52.122;5.406;2022-08-19T11:20:07;18.97;;;15.07;;
71734;SDS011;59577;52.122;5.406;2022-08-19T11:22:35;19.33;;;14.27;;
71734;SDS011;59577;52.122;5.406;2022-08-19T11:25:07;17.65;;;14.70;;
71734;SDS011;59577;52.122;5.406;2022-08-19T11:27:39;16.95;;;13.23;;
71734;SDS011;59577;52.122;5.406;2022-08-19T11:30:08;21.52;;;14.90;;
71734;SDS011;59577;52.122;5.406;2022-08-19T11:32:38;15.83;;;13.97;;
71734;SDS011;59577;52.122;5.406;2022-08-19T11:35:08;16.80;;;13.77;;
71734;SDS011;59577;52.122;5.406;2022-08-19T11:37:37;16.85;;;13.73;;
71734;SDS011;59577;52.122;5.406;2022-08-19T11:40:04;16.17;;;13.93;;
71734;SDS011;59577;52.122;5.406;2022-08-19T11:42:32;16.98;;;13.93;;
71734;SDS011;59577;52.122;5.406;2022-08-19T11:45:17;18.77;;;14.57;;
71734;SDS011;59577;52.122;5.406;2022-08-19T11:47:44;21.02;;;15.50;;
71734;SDS011;59577;52.122;5.406;2022-08-19T11:50:10;17.13;;;12.82;;
71734;SDS011;59577;52.122;5.406;2022-08-19T11:52:37;15.90;;;12.55;;
71734;SDS011;59577;52.122;5.406;2022-08-19T11:55:03;16.85;;;13.60;;
71734;SDS011;59577;52.122;5.406;2022-08-19T11:57:31;18.30;;;14.63;;
71734;SDS011;59577;52.122;5.406;2022-08-19T11:59:57;20.42;;;14.15;;
71734;SDS011;59577;52.122;5.406;2022-08-19T12:02:24;16.75;;;13.23;;
71734;SDS011;59577;52.122;5.406;2022-08-19T12:04:51;16.00;;;11.93;;
71734;SDS011;59577;52.122;5.406;2022-08-19T12:07:17;20.88;;;14.63;;
71734;SDS011;59577;52.122;5.406;2022-08-19T12:09:44;19.07;;;15.53;;
71734;SDS011;59577;52.122;5.406;2022-08-19T12:12:14;17.52;;;12.98;;
71734;SDS011;59577;52.122;5.406;2022-08-19T12:14:41;20.50;;;15.40;;
71734;SDS011;59577;52.122;5.406;2022-08-19T12:17:07;18.20;;;13.05;;
71734;SDS011;59577;52.122;5.406;2022-08-19T12:19:36;23.05;;;15.23;;
71734;SDS011;59577;52.122;5.406;2022-08-19T12:22:03;18.37;;;14.07;;
71734;SDS011;59577;52.122;5.406;2022-08-19T12:24:31;18.92;;;11.82;;
71734;SDS011;59577;52.122;5.406;2022-08-19T12:26:59;16.38;;;11.70;;
71734;SDS011;59577;52.122;5.406;2022-08-19T12:29:28;18.17;;;13.23;;
71734;SDS011;59577;52.122;5.406;2022-08-19T12:31:56;22.05;;;13.88;;
71734;SDS011;59577;52.122;5.406;2022-08-19T12:34:29;16.70;;;12.60;;
71734;SDS011;59577;52.122;5.406;2022-08-19T12:36:57;18.73;;;12.43;;
71734;SDS011;59577;52.122;5.406;2022-08-19T12:39:25;27.30;;;13.07;;
71734;SDS011;59577;52.122;5.406;2022-08-19T12:41:51;14.10;;;11.48;;
71734;SDS011;59577;52.122;5.406;2022-08-19T12:44:22;17.15;;;11.73;;
71734;SDS011;59577;52.122;5.406;2022-08-19T12:46:57;13.57;;;11.10;;
71734;SDS011;59577;52.122;5.406;2022-08-19T12:49:23;14.52;;;12.15;;
71734;SDS011;59577;52.122;5.406;2022-08-19T12:52:11;12.48;;;11.15;;
71734;SDS011;59577;52.122;5.406;2022-08-19T12:54:41;14.70;;;10.45;;
71734;SDS011;59577;52.122;5.406;2022-08-19T12:57:09;13.48;;;10.48;;
71734;SDS011;59577;52.122;5.406;2022-08-19T12:59:37;15.10;;;11.47;;
71734;SDS011;59577;52.122;5.406;2022-08-19T13:02:04;12.40;;;10.23;;
71734;SDS011;59577;52.122;5.406;2022-08-19T13:04:33;15.15;;;10.63;;
71734;SDS011;59577;52.122;5.406;2022-08-19T13:07:07;17.42;;;9.93;;
71734;SDS011;59577;52.122;5.406;2022-08-19T13:09:34;13.80;;;10.63;;
71734;SDS011;59577;52.122;5.406;2022-08-19T13:12:01;15.17;;;10.20;;
71734;SDS011;59577;52.122;5.406;2022-08-19T13:14:29;23.95;;;11.93;;
71734;SDS011;59577;52.122;5.406;2022-08-19T13:16:58;11.60;;;10.20;;
71734;SDS011;59577;52.122;5.406;2022-08-19T13:19:25;11.80;;;10.45;;
71734;SDS011;59577;52.122;5.406;2022-08-19T13:21:52;15.77;;;9.88;;
71734;SDS011;59577;52.122;5.406;2022-08-19T13:24:25;13.73;;;9.30;;
71734;SDS011;59577;52.122;5.406;2022-08-19T13:26:59;10.80;;;9.70;;
71734;SDS011;59577;52.122;5.406;2022-08-19T13:29:26;15.50;;;9.25;;
71734;SDS011;59577;52.122;5.406;2022-08-19T13:32:11;11.63;;;9.18;;
71734;SDS011;59577;52.122;5.406;2022-08-19T13:34:56;13.13;;;9.77;;
71734;SDS011;59577;52.122;5.406;2022-08-19T13:37:22;14.03;;;9.37;;
71734;SDS011;59577;52.122;5.406;2022-08-19T13:40:11;9.73;;;8.77;;
71734;SDS011;59577;52.122;5.406;2022-08-19T13:42:45;12.05;;;9.77;;
71734;SDS011;59577;52.122;5.406;2022-08-19T13:45:13;10.63;;;8.85;;
71734;SDS011;59577;52.122;5.406;2022-08-19T13:47:41;11.45;;;9.40;;
71734;SDS011;59577;52.122;5.406;2022-08-19T13:50:11;10.67;;;8.93;;
71734;SDS011;59577;52.122;5.406;2022-08-19T13:52:40;10.45;;;9.25;;
71734;SDS011;59577;52.122;5.406;2022-08-19T13:55:07;16.13;;;10.07;;
71734;SDS011;59577;52.122;5.406;2022-08-19T13:57:35;17.67;;;10.52;;
71734;SDS011;59577;52.122;5.406;2022-08-19T14:00:03;19.83;;;12.82;;
71734;SDS011;59577;52.122;5.406;2022-08-19T14:02:31;12.77;;;11.33;;
71734;SDS011;59577;52.122;5.406;2022-08-19T14:04:58;11.45;;;9.13;;
71734;SDS011;59577;52.122;5.406;2022-08-19T14:07:24;14.85;;;10.23;;
71734;SDS011;59577;52.122;5.406;2022-08-19T14:09:53;14.15;;;9.20;;
71734;SDS011;59577;52.122;5.406;2022-08-19T14:12:23;10.18;;;9.23;;
71734;SDS011;59577;52.122;5.406;2022-08-19T14:14:54;11.73;;;8.83;;
71734;SDS011;59577;52.122;5.406;2022-08-19T14:17:20;12.30;;;9.40;;
71734;SDS011;59577;52.122;5.406;2022-08-19T14:19:47;10.55;;;9.45;;
71734;SDS011;59577;52.122;5.406;2022-08-19T14:22:14;10.57;;;9.00;;
71734;SDS011;59577;52.122;5.406;2022-08-19T14:24:47;13.70;;;8.73;;
71734;SDS011;59577;52.122;5.406;2022-08-19T14:27:14;12.53;;;8.10;;
71734;SDS011;59577;52.122;5.406;2022-08-19T14:29:40;10.30;;;8.00;;
71734;SDS011;59577;52.122;5.406;2022-08-19T14:32:07;11.32;;;8.07;;
71734;SDS011;59577;52.122;5.406;2022-08-19T14:34:41;11.52;;;7.82;;
71734;SDS011;59577;52.122;5.406;2022-08-19T14:37:08;10.32;;;8.02;;
71734;SDS011;59577;52.122;5.406;2022-08-19T14:39:40;11.67;;;8.20;;
71734;SDS011;59577;52.122;5.406;2022-08-19T14:42:07;10.60;;;8.35;;
71734;SDS011;59577;52.122;5.406;2022-08-19T14:44:36;11.48;;;8.63;;
71734;SDS011;59577;52.122;5.406;2022-08-19T14:47:03;7.38;;;6.68;;
71734;SDS011;59577;52.122;5.406;2022-08-19T14:49:30;10.82;;;7.65;;
71734;SDS011;59577;52.122;5.406;2022-08-19T14:52:07;8.57;;;6.43;;
71734;SDS011;59577;52.122;5.406;2022-08-19T14:54:34;7.80;;;6.40;;
71734;SDS011;59577;52.122;5.406;2022-08-19T14:57:00;7.32;;;6.28;;
71734;SDS011;59577;52.122;5.406;2022-08-19T14:59:27;6.75;;;5.40;;
71734;SDS011;59577;52.122;5.406;2022-08-19T15:01:53;5.63;;;5.15;;